sensor_id;sensor_type;location;lat;lon;timestamp;P1;durP1;ratioP1;P2;durP2;ratioP2
15913;SDS011;8055;51.930;8.840;2022-07-29T00:01:59;3.45;;;1.48;;
15913;SDS011;8055;51.930;8.840;2022-07-29T00:04:24;6.47;;;1.50;;
15913;SDS011;8055;51.930;8.840;2022-07-29T00:06:50;6.97;;;1.48;;
15913;SDS011;8055;51.930;8.840;2022-07-29T00:09:15;3.05;;;1.33;;
15913;SDS011;8055;51.930;8.840;2022-07-29T00:11:40;5.85;;;1.40;;
15913;SDS011;8055;51.930;8.840;2022-07-29T00:14:06;5.28;;;1.42;;
15913;SDS011;8055;51.930;8.840;2022-07-29T00:16:31;5.97;;;1.65;;
15913;SDS011;8055;51.930;8.840;2022-07-29T00:18:57;6.10;;;1.80;;
15913;SDS011;8055;51.930;8.840;2022-07-29T00:21:22;7.47;;;1.42;;
15913;SDS011;8055;51.930;8.840;2022-07-29T00:23:48;6.43;;;1.30;;
15913;SDS011;8055;51.930;8.840;2022-07-29T00:26:13;5.30;;;1.58;;
15913;SDS011;8055;51.930;8.840;2022-07-29T00:28:38;4.15;;;1.48;;
15913;SDS011;8055;51.930;8.840;2022-07-29T00:31:04;5.93;;;1.70;;
15913;SDS011;8055;51.930;8.840;2022-07-29T00:33:29;4.68;;;1.20;;
15913;SDS011;8055;51.930;8.840;2022-07-29T00:35:55;5.68;;;1.65;;
15913;SDS011;8055;51.930;8.840;2022-07-29T00:38:20;6.50;;;1.60;;
15913;SDS011;8055;51.930;8.840;2022-07-29T00:40:46;5.88;;;1.35;;
15913;SDS011;8055;51.930;8.840;2022-07-29T00:43:12;5.55;;;1.65;;
15913;SDS011;8055;51.930;8.840;2022-07-29T00:45:40;6.30;;;1.30;;
15913;SDS011;8055;51.930;8.840;2022-07-29T00:48:06;6.38;;;1.80;;
15913;SDS011;8055;51.930;8.840;2022-07-29T00:50:33;2.05;;;1.20;;
15913;SDS011;8055;51.930;8.840;2022-07-29T00:53:01;5.75;;;1.42;;
15913;SDS011;8055;51.930;8.840;2022-07-29T00:55:28;6.72;;;1.45;;
15913;SDS011;8055;51.930;8.840;2022-07-29T00:57:54;7.15;;;1.65;;
15913;SDS011;8055;51.930;8.840;2022-07-29T01:00:21;7.95;;;1.77;;
15913;SDS011;8055;51.930;8.840;2022-07-29T01:02:49;6.93;;;1.30;;
15913;SDS011;8055;51.930;8.840;2022-07-29T01:05:18;8.38;;;1.40;;
15913;SDS011;8055;51.930;8.840;2022-07-29T01:07:46;5.10;;;1.52;;
15913;SDS011;8055;51.930;8.840;2022-07-29T01:10:15;5.68;;;1.50;;
15913;SDS011;8055;51.930;8.840;2022-07-29T01:12:43;10.57;;;1.45;;
15913;SDS011;8055;51.930;8.840;2022-07-29T01:15:11;3.25;;;1.30;;
15913;SDS011;8055;51.930;8.840;2022-07-29T01:20:30;7.03;;;1.83;;
15913;SDS011;8055;51.930;8.840;2022-07-29T01:31:22;4.53;;;1.55;;
15913;SDS011;8055;51.930;8.840;2022-07-29T01:33:57;3.75;;;1.58;;
15913;SDS011;8055;51.930;8.840;2022-07-29T01:36:34;7.82;;;1.70;;
15913;SDS011;8055;51.930;8.840;2022-07-29T01:39:04;4.70;;;1.40;;
15913;SDS011;8055;51.930;8.840;2022-07-29T01:41:40;5.25;;;1.33;;
15913;SDS011;8055;51.930;8.840;2022-07-29T01:44:20;4.97;;;1.60;;
15913;SDS011;8055;51.930;8.840;2022-07-29T01:46:52;3.53;;;1.50;;
15913;SDS011;8055;51.930;8.840;2022-07-29T01:49:23;4.45;;;1.67;;
15913;SDS011;8055;51.930;8.840;2022-07-29T01:51:53;6.97;;;1.80;;
15913;SDS011;8055;51.930;8.840;2022-07-29T01:54:37;7.10;;;1.83;;
15913;SDS011;8055;51.930;8.840;2022-07-29T01:57:07;6.60;;;1.30;;
15913;SDS011;8055;51.930;8.840;2022-07-29T01:59:36;3.13;;;1.55;;
15913;SDS011;8055;51.930;8.840;2022-07-29T02:02:03;8.52;;;1.50;;
15913;SDS011;8055;51.930;8.840;2022-07-29T02:04:31;5.93;;;1.45;;
15913;SDS011;8055;51.930;8.840;2022-07-29T02:07:02;8.43;;;1.50;;
15913;SDS011;8055;51.930;8.840;2022-07-29T02:09:33;4.38;;;1.35;;
15913;SDS011;8055;51.930;8.840;2022-07-29T02:12:01;3.17;;;1.55;;
15913;SDS011;8055;51.930;8.840;2022-07-29T02:14:29;4.05;;;1.40;;
15913;SDS011;8055;51.930;8.840;2022-07-29T02:17:07;5.68;;;1.52;;
15913;SDS011;8055;51.930;8.840;2022-07-29T02:19:33;5.50;;;1.40;;
15913;SDS011;8055;51.930;8.840;2022-07-29T02:22:02;4.95;;;1.40;;
15913;SDS011;8055;51.930;8.840;2022-07-29T02:24:30;6.32;;;1.38;;
15913;SDS011;8055;51.930;8.840;2022-07-29T02:26:56;10.95;;;1.98;;
15913;SDS011;8055;51.930;8.840;2022-07-29T02:29:24;4.72;;;1.33;;
15913;SDS011;8055;51.930;8.840;2022-07-29T02:31:51;5.75;;;1.58;;
15913;SDS011;8055;51.930;8.840;2022-07-29T02:34:19;3.33;;;1.20;;
15913;SDS011;8055;51.930;8.840;2022-07-29T02:36:46;5.50;;;1.40;;
15913;SDS011;8055;51.930;8.840;2022-07-29T02:39:12;4.25;;;1.40;;
15913;SDS011;8055;51.930;8.840;2022-07-29T02:41:41;7.63;;;1.60;;
15913;SDS011;8055;51.930;8.840;2022-07-29T02:44:10;6.68;;;1.50;;
15913;SDS011;8055;51.930;8.840;2022-07-29T02:46:37;15.32;;;1.92;;
15913;SDS011;8055;51.930;8.840;2022-07-29T02:49:13;7.78;;;1.40;;
15913;SDS011;8055;51.930;8.840;2022-07-29T02:51:49;6.85;;;1.77;;
15913;SDS011;8055;51.930;8.840;2022-07-29T02:54:25;4.05;;;1.48;;
15913;SDS011;8055;51.930;8.840;2022-07-29T02:56:51;7.38;;;1.33;;
15913;SDS011;8055;51.930;8.840;2022-07-29T02:59:22;4.22;;;1.58;;
15913;SDS011;8055;51.930;8.840;2022-07-29T03:01:50;3.95;;;1.60;;
15913;SDS011;8055;51.930;8.840;2022-07-29T03:04:18;5.07;;;1.60;;
15913;SDS011;8055;51.930;8.840;2022-07-29T03:06:45;3.85;;;1.27;;
15913;SDS011;8055;51.930;8.840;2022-07-29T03:09:12;4.68;;;1.52;;
15913;SDS011;8055;51.930;8.840;2022-07-29T03:11:39;8.00;;;1.85;;
15913;SDS011;8055;51.930;8.840;2022-07-29T03:14:05;6.90;;;1.90;;
15913;SDS011;8055;51.930;8.840;2022-07-29T03:16:32;8.95;;;1.70;;
15913;SDS011;8055;51.930;8.840;2022-07-29T03:19:01;7.15;;;1.75;;
15913;SDS011;8055;51.930;8.840;2022-07-29T03:21:27;4.07;;;1.40;;
15913;SDS011;8055;51.930;8.840;2022-07-29T03:23:53;6.32;;;1.75;;
15913;SDS011;8055;51.930;8.840;2022-07-29T03:26:18;5.07;;;1.58;;
15913;SDS011;8055;51.930;8.840;2022-07-29T03:28:44;6.93;;;1.58;;
15913;SDS011;8055;51.930;8.840;2022-07-29T03:31:09;4.75;;;1.85;;
15913;SDS011;8055;51.930;8.840;2022-07-29T03:33:34;6.10;;;1.70;;
15913;SDS011;8055;51.930;8.840;2022-07-29T03:36:00;7.35;;;2.00;;
15913;SDS011;8055;51.930;8.840;2022-07-29T03:38:27;8.50;;;2.35;;
15913;SDS011;8055;51.930;8.840;2022-07-29T03:40:56;5.57;;;2.25;;
15913;SDS011;8055;51.930;8.840;2022-07-29T03:43:26;6.20;;;2.13;;
15913;SDS011;8055;51.930;8.840;2022-07-29T03:45:57;4.70;;;2.00;;
15913;SDS011;8055;51.930;8.840;2022-07-29T03:48:25;7.50;;;2.05;;
15913;SDS011;8055;51.930;8.840;2022-07-29T03:50:51;4.22;;;1.80;;
15913;SDS011;8055;51.930;8.840;2022-07-29T03:53:17;4.72;;;1.75;;
15913;SDS011;8055;51.930;8.840;2022-07-29T03:55:45;6.03;;;1.83;;
15913;SDS011;8055;51.930;8.840;2022-07-29T03:58:13;5.05;;;1.90;;
15913;SDS011;8055;51.930;8.840;2022-07-29T04:00:40;6.18;;;1.60;;
15913;SDS011;8055;51.930;8.840;2022-07-29T04:03:07;5.13;;;1.90;;
15913;SDS011;8055;51.930;8.840;2022-07-29T04:05:34;5.07;;;1.45;;
15913;SDS011;8055;51.930;8.840;2022-07-29T04:07:59;4.07;;;1.40;;
15913;SDS011;8055;51.930;8.840;2022-07-29T04:10:25;9.18;;;1.98;;
15913;SDS011;8055;51.930;8.840;2022-07-29T04:12:50;4.50;;;1.60;;
15913;SDS011;8055;51.930;8.840;2022-07-29T04:15:16;4.18;;;1.35;;
15913;SDS011;8055;51.930;8.840;2022-07-29T04:17:41;8.20;;;1.60;;
15913;SDS011;8055;51.930;8.840;2022-07-29T04:20:08;2.90;;;1.48;;
15913;SDS011;8055;51.930;8.840;2022-07-29T04:22:34;6.82;;;2.10;;
15913;SDS011;8055;51.930;8.840;2022-07-29T04:24:59;7.93;;;1.90;;
15913;SDS011;8055;51.930;8.840;2022-07-29T04:27:25;5.95;;;1.90;;
15913;SDS011;8055;51.930;8.840;2022-07-29T04:29:50;5.50;;;1.63;;
15913;SDS011;8055;51.930;8.840;2022-07-29T04:32:16;5.45;;;2.10;;
15913;SDS011;8055;51.930;8.840;2022-07-29T04:34:41;7.18;;;1.83;;
15913;SDS011;8055;51.930;8.840;2022-07-29T04:37:07;3.95;;;1.45;;
15913;SDS011;8055;51.930;8.840;2022-07-29T04:39:32;4.15;;;1.90;;
15913;SDS011;8055;51.930;8.840;2022-07-29T04:41:57;3.40;;;1.90;;
15913;SDS011;8055;51.930;8.840;2022-07-29T04:44:23;7.30;;;2.40;;
15913;SDS011;8055;51.930;8.840;2022-07-29T04:46:48;7.07;;;2.10;;
15913;SDS011;8055;51.930;8.840;2022-07-29T04:49:14;7.65;;;2.13;;
15913;SDS011;8055;51.930;8.840;2022-07-29T04:51:39;6.93;;;2.25;;
15913;SDS011;8055;51.930;8.840;2022-07-29T04:54:05;4.13;;;1.83;;
15913;SDS011;8055;51.930;8.840;2022-07-29T04:56:31;6.10;;;1.70;;
15913;SDS011;8055;51.930;8.840;2022-07-29T04:58:56;4.43;;;1.58;;
15913;SDS011;8055;51.930;8.840;2022-07-29T05:01:22;8.80;;;1.58;;
15913;SDS011;8055;51.930;8.840;2022-07-29T05:03:47;3.45;;;1.67;;
15913;SDS011;8055;51.930;8.840;2022-07-29T05:06:13;6.95;;;1.70;;
15913;SDS011;8055;51.930;8.840;2022-07-29T05:08:38;8.13;;;2.00;;
15913;SDS011;8055;51.930;8.840;2022-07-29T05:11:03;5.20;;;1.67;;
15913;SDS011;8055;51.930;8.840;2022-07-29T05:13:29;8.70;;;1.90;;
15913;SDS011;8055;51.930;8.840;2022-07-29T05:15:55;6.63;;;1.65;;
15913;SDS011;8055;51.930;8.840;2022-07-29T05:18:20;5.03;;;1.77;;
15913;SDS011;8055;51.930;8.840;2022-07-29T05:20:46;10.32;;;1.80;;
15913;SDS011;8055;51.930;8.840;2022-07-29T05:23:11;5.60;;;1.90;;
15913;SDS011;8055;51.930;8.840;2022-07-29T05:25:40;7.03;;;1.95;;
15913;SDS011;8055;51.930;8.840;2022-07-29T05:28:06;11.02;;;1.85;;
15913;SDS011;8055;51.930;8.840;2022-07-29T05:30:31;5.57;;;2.00;;
15913;SDS011;8055;51.930;8.840;2022-07-29T05:32:57;6.35;;;2.08;;
15913;SDS011;8055;51.930;8.840;2022-07-29T05:35:22;6.55;;;1.88;;
15913;SDS011;8055;51.930;8.840;2022-07-29T05:37:48;5.45;;;1.70;;
15913;SDS011;8055;51.930;8.840;2022-07-29T05:40:13;7.45;;;2.05;;
15913;SDS011;8055;51.930;8.840;2022-07-29T05:42:39;6.03;;;2.00;;
15913;SDS011;8055;51.930;8.840;2022-07-29T05:45:04;3.58;;;1.83;;
15913;SDS011;8055;51.930;8.840;2022-07-29T05:47:30;5.63;;;1.77;;
15913;SDS011;8055;51.930;8.840;2022-07-29T05:49:56;6.63;;;1.58;;
15913;SDS011;8055;51.930;8.840;2022-07-29T05:52:22;4.78;;;1.98;;
15913;SDS011;8055;51.930;8.840;2022-07-29T05:54:47;5.10;;;1.80;;
15913;SDS011;8055;51.930;8.840;2022-07-29T05:57:20;6.10;;;2.00;;
15913;SDS011;8055;51.930;8.840;2022-07-29T05:59:48;5.60;;;1.70;;
15913;SDS011;8055;51.930;8.840;2022-07-29T06:02:14;9.93;;;2.00;;
15913;SDS011;8055;51.930;8.840;2022-07-29T06:04:40;7.55;;;1.77;;
15913;SDS011;8055;51.930;8.840;2022-07-29T06:07:06;4.75;;;2.08;;
15913;SDS011;8055;51.930;8.840;2022-07-29T06:09:31;8.55;;;2.33;;
15913;SDS011;8055;51.930;8.840;2022-07-29T06:11:57;5.55;;;1.80;;
15913;SDS011;8055;51.930;8.840;2022-07-29T06:14:23;5.05;;;1.90;;
15913;SDS011;8055;51.930;8.840;2022-07-29T06:16:49;5.57;;;2.03;;
15913;SDS011;8055;51.930;8.840;2022-07-29T06:19:14;8.68;;;2.17;;
15913;SDS011;8055;51.930;8.840;2022-07-29T06:21:41;5.50;;;1.63;;
15913;SDS011;8055;51.930;8.840;2022-07-29T06:24:08;4.32;;;1.90;;
15913;SDS011;8055;51.930;8.840;2022-07-29T06:26:35;5.55;;;1.88;;
15913;SDS011;8055;51.930;8.840;2022-07-29T06:29:00;5.10;;;2.00;;
15913;SDS011;8055;51.930;8.840;2022-07-29T06:31:25;7.38;;;1.77;;
15913;SDS011;8055;51.930;8.840;2022-07-29T06:33:51;11.10;;;2.00;;
15913;SDS011;8055;51.930;8.840;2022-07-29T06:36:17;12.85;;;2.28;;
15913;SDS011;8055;51.930;8.840;2022-07-29T06:38:43;4.75;;;1.63;;
15913;SDS011;8055;51.930;8.840;2022-07-29T06:41:08;6.90;;;1.90;;
15913;SDS011;8055;51.930;8.840;2022-07-29T06:43:40;7.65;;;1.88;;
15913;SDS011;8055;51.930;8.840;2022-07-29T06:46:07;7.50;;;2.42;;
15913;SDS011;8055;51.930;8.840;2022-07-29T06:48:35;4.43;;;1.60;;
15913;SDS011;8055;51.930;8.840;2022-07-29T06:51:04;5.25;;;2.00;;
15913;SDS011;8055;51.930;8.840;2022-07-29T06:53:30;6.38;;;1.70;;
15913;SDS011;8055;51.930;8.840;2022-07-29T06:55:57;2.80;;;1.30;;
15913;SDS011;8055;51.930;8.840;2022-07-29T06:58:24;5.38;;;1.75;;
15913;SDS011;8055;51.930;8.840;2022-07-29T07:00:50;3.92;;;1.60;;
15913;SDS011;8055;51.930;8.840;2022-07-29T07:03:17;7.57;;;2.13;;
15913;SDS011;8055;51.930;8.840;2022-07-29T07:05:43;5.00;;;1.58;;
15913;SDS011;8055;51.930;8.840;2022-07-29T07:08:09;6.75;;;1.95;;
15913;SDS011;8055;51.930;8.840;2022-07-29T07:10:35;5.20;;;1.63;;
15913;SDS011;8055;51.930;8.840;2022-07-29T07:13:01;6.80;;;1.60;;
15913;SDS011;8055;51.930;8.840;2022-07-29T07:15:26;5.47;;;1.60;;
15913;SDS011;8055;51.930;8.840;2022-07-29T07:17:52;4.65;;;1.63;;
15913;SDS011;8055;51.930;8.840;2022-07-29T07:20:18;4.05;;;1.55;;
15913;SDS011;8055;51.930;8.840;2022-07-29T07:22:44;12.13;;;1.90;;
15913;SDS011;8055;51.930;8.840;2022-07-29T07:25:09;5.47;;;1.60;;
15913;SDS011;8055;51.930;8.840;2022-07-29T07:27:35;5.75;;;1.88;;
15913;SDS011;8055;51.930;8.840;2022-07-29T07:30:02;6.80;;;1.63;;
15913;SDS011;8055;51.930;8.840;2022-07-29T07:32:30;6.40;;;1.67;;
15913;SDS011;8055;51.930;8.840;2022-07-29T07:34:56;7.25;;;1.52;;
15913;SDS011;8055;51.930;8.840;2022-07-29T07:37:22;7.68;;;2.00;;
15913;SDS011;8055;51.930;8.840;2022-07-29T07:39:49;2.33;;;1.50;;
15913;SDS011;8055;51.930;8.840;2022-07-29T07:42:15;6.35;;;1.65;;
15913;SDS011;8055;51.930;8.840;2022-07-29T07:44:40;9.20;;;1.88;;
15913;SDS011;8055;51.930;8.840;2022-07-29T07:47:06;7.00;;;1.55;;
15913;SDS011;8055;51.930;8.840;2022-07-29T07:49:31;3.55;;;1.17;;
15913;SDS011;8055;51.930;8.840;2022-07-29T07:51:57;5.05;;;1.60;;
15913;SDS011;8055;51.930;8.840;2022-07-29T07:54:22;4.80;;;1.90;;
15913;SDS011;8055;51.930;8.840;2022-07-29T07:56:47;5.07;;;1.58;;
15913;SDS011;8055;51.930;8.840;2022-07-29T07:59:16;2.22;;;1.50;;
15913;SDS011;8055;51.930;8.840;2022-07-29T08:01:42;5.65;;;1.60;;
15913;SDS011;8055;51.930;8.840;2022-07-29T08:04:08;3.85;;;1.52;;
15913;SDS011;8055;51.930;8.840;2022-07-29T08:06:33;5.40;;;1.60;;
15913;SDS011;8055;51.930;8.840;2022-07-29T08:09:05;5.15;;;1.40;;
15913;SDS011;8055;51.930;8.840;2022-07-29T08:11:30;3.10;;;1.25;;
15913;SDS011;8055;51.930;8.840;2022-07-29T08:13:56;4.70;;;1.55;;
15913;SDS011;8055;51.930;8.840;2022-07-29T08:16:22;4.10;;;1.35;;
15913;SDS011;8055;51.930;8.840;2022-07-29T08:18:50;6.47;;;1.58;;
15913;SDS011;8055;51.930;8.840;2022-07-29T08:21:16;3.88;;;1.30;;
15913;SDS011;8055;51.930;8.840;2022-07-29T08:23:42;4.15;;;1.63;;
15913;SDS011;8055;51.930;8.840;2022-07-29T08:26:18;4.53;;;1.65;;
15913;SDS011;8055;51.930;8.840;2022-07-29T08:28:45;6.20;;;1.70;;
15913;SDS011;8055;51.930;8.840;2022-07-29T08:31:14;3.80;;;1.40;;
15913;SDS011;8055;51.930;8.840;2022-07-29T08:33:40;4.93;;;1.63;;
15913;SDS011;8055;51.930;8.840;2022-07-29T08:36:06;4.93;;;1.60;;
15913;SDS011;8055;51.930;8.840;2022-07-29T08:38:32;4.65;;;1.63;;
15913;SDS011;8055;51.930;8.840;2022-07-29T08:40:58;5.90;;;1.77;;
15913;SDS011;8055;51.930;8.840;2022-07-29T08:43:26;3.92;;;1.70;;
15913;SDS011;8055;51.930;8.840;2022-07-29T08:45:55;4.97;;;1.63;;
15913;SDS011;8055;51.930;8.840;2022-07-29T08:48:21;3.03;;;1.27;;
15913;SDS011;8055;51.930;8.840;2022-07-29T08:50:48;5.10;;;1.50;;
15913;SDS011;8055;51.930;8.840;2022-07-29T08:53:18;3.28;;;1.38;;
15913;SDS011;8055;51.930;8.840;2022-07-29T08:55:44;4.53;;;1.40;;
15913;SDS011;8055;51.930;8.840;2022-07-29T08:58:11;3.42;;;1.50;;
15913;SDS011;8055;51.930;8.840;2022-07-29T09:00:42;4.80;;;1.75;;
15913;SDS011;8055;51.930;8.840;2022-07-29T09:03:10;7.00;;;1.80;;
15913;SDS011;8055;51.930;8.840;2022-07-29T09:05:44;9.70;;;1.67;;
15913;SDS011;8055;51.930;8.840;2022-07-29T09:08:10;5.25;;;1.88;;
15913;SDS011;8055;51.930;8.840;2022-07-29T09:10:37;3.15;;;1.52;;
15913;SDS011;8055;51.930;8.840;2022-07-29T09:13:03;4.88;;;1.52;;
15913;SDS011;8055;51.930;8.840;2022-07-29T09:15:28;5.50;;;1.70;;
15913;SDS011;8055;51.930;8.840;2022-07-29T09:17:54;2.90;;;1.35;;
15913;SDS011;8055;51.930;8.840;2022-07-29T09:20:21;5.07;;;1.45;;
15913;SDS011;8055;51.930;8.840;2022-07-29T09:22:48;5.95;;;1.50;;
15913;SDS011;8055;51.930;8.840;2022-07-29T09:25:15;6.72;;;1.83;;
15913;SDS011;8055;51.930;8.840;2022-07-29T09:28:04;6.93;;;1.77;;
15913;SDS011;8055;51.930;8.840;2022-07-29T09:30:34;8.10;;;1.98;;
15913;SDS011;8055;51.930;8.840;2022-07-29T09:33:02;7.85;;;1.83;;
15913;SDS011;8055;51.930;8.840;2022-07-29T09:35:28;6.65;;;1.70;;
15913;SDS011;8055;51.930;8.840;2022-07-29T09:37:55;5.93;;;1.60;;
15913;SDS011;8055;51.930;8.840;2022-07-29T09:40:22;6.03;;;1.70;;
15913;SDS011;8055;51.930;8.840;2022-07-29T09:42:49;6.10;;;1.90;;
15913;SDS011;8055;51.930;8.840;2022-07-29T09:48:13;5.97;;;1.58;;
15913;SDS011;8055;51.930;8.840;2022-07-29T09:50:40;5.85;;;2.00;;
15913;SDS011;8055;51.930;8.840;2022-07-29T09:53:08;4.72;;;1.50;;
15913;SDS011;8055;51.930;8.840;2022-07-29T09:55:47;5.57;;;1.90;;
15913;SDS011;8055;51.930;8.840;2022-07-29T09:58:20;5.20;;;1.80;;
15913;SDS011;8055;51.930;8.840;2022-07-29T10:00:48;3.00;;;1.47;;
15913;SDS011;8055;51.930;8.840;2022-07-29T10:03:15;3.08;;;1.60;;
15913;SDS011;8055;51.930;8.840;2022-07-29T10:05:41;4.28;;;1.90;;
15913;SDS011;8055;51.930;8.840;2022-07-29T10:08:07;7.03;;;2.13;;
15913;SDS011;8055;51.930;8.840;2022-07-29T10:10:34;3.15;;;1.60;;
15913;SDS011;8055;51.930;8.840;2022-07-29T10:13:05;4.60;;;1.67;;
15913;SDS011;8055;51.930;8.840;2022-07-29T10:15:33;5.68;;;1.80;;
15913;SDS011;8055;51.930;8.840;2022-07-29T10:18:06;6.85;;;1.67;;
15913;SDS011;8055;51.930;8.840;2022-07-29T10:20:32;6.18;;;1.65;;
15913;SDS011;8055;51.930;8.840;2022-07-29T10:22:58;4.90;;;2.22;;
15913;SDS011;8055;51.930;8.840;2022-07-29T10:25:24;5.30;;;2.05;;
15913;SDS011;8055;51.930;8.840;2022-07-29T10:27:50;6.22;;;1.75;;
15913;SDS011;8055;51.930;8.840;2022-07-29T10:30:17;3.30;;;1.45;;
15913;SDS011;8055;51.930;8.840;2022-07-29T10:35:42;7.05;;;1.65;;
15913;SDS011;8055;51.930;8.840;2022-07-29T10:38:44;5.90;;;1.90;;
15913;SDS011;8055;51.930;8.840;2022-07-29T10:46:47;6.22;;;2.10;;
15913;SDS011;8055;51.930;8.840;2022-07-29T10:49:14;4.43;;;1.98;;
15913;SDS011;8055;51.930;8.840;2022-07-29T10:54:19;3.58;;;2.20;;
15913;SDS011;8055;51.930;8.840;2022-07-29T10:57:11;4.03;;;1.75;;
15913;SDS011;8055;51.930;8.840;2022-07-29T10:59:40;4.97;;;2.03;;
15913;SDS011;8055;51.930;8.840;2022-07-29T11:02:52;5.80;;;2.17;;
15913;SDS011;8055;51.930;8.840;2022-07-29T11:05:05;4.10;;;1.73;;
15913;SDS011;8055;51.930;8.840;2022-07-29T11:07:33;4.53;;;1.95;;
15913;SDS011;8055;51.930;8.840;2022-07-29T11:15:03;4.22;;;1.70;;
15913;SDS011;8055;51.930;8.840;2022-07-29T11:20:33;6.60;;;2.20;;
15913;SDS011;8055;51.930;8.840;2022-07-29T11:23:18;6.63;;;2.22;;
15913;SDS011;8055;51.930;8.840;2022-07-29T11:25:45;5.68;;;2.08;;
15913;SDS011;8055;51.930;8.840;2022-07-29T11:28:32;5.05;;;2.70;;
15913;SDS011;8055;51.930;8.840;2022-07-29T11:30:59;6.35;;;2.40;;
15913;SDS011;8055;51.930;8.840;2022-07-29T11:33:32;3.10;;;2.42;;
15913;SDS011;8055;51.930;8.840;2022-07-29T11:36:11;6.97;;;2.53;;
15913;SDS011;8055;51.930;8.840;2022-07-29T11:38:39;7.30;;;2.45;;
15913;SDS011;8055;51.930;8.840;2022-07-29T11:43:54;6.50;;;2.53;;
15913;SDS011;8055;51.930;8.840;2022-07-29T11:49:10;8.80;;;2.58;;
15913;SDS011;8055;51.930;8.840;2022-07-29T11:51:36;5.05;;;2.65;;
15913;SDS011;8055;51.930;8.840;2022-07-29T11:54:02;5.85;;;2.47;;
15913;SDS011;8055;51.930;8.840;2022-07-29T11:56:30;5.60;;;2.40;;
15913;SDS011;8055;51.930;8.840;2022-07-29T11:59:06;5.50;;;2.30;;
15913;SDS011;8055;51.930;8.840;2022-07-29T12:01:34;4.22;;;2.30;;
15913;SDS011;8055;51.930;8.840;2022-07-29T12:04:04;5.95;;;2.40;;
15913;SDS011;8055;51.930;8.840;2022-07-29T12:06:31;6.45;;;2.95;;
15913;SDS011;8055;51.930;8.840;2022-07-29T12:08:57;9.18;;;2.60;;
15913;SDS011;8055;51.930;8.840;2022-07-29T12:11:23;6.93;;;2.60;;
15913;SDS011;8055;51.930;8.840;2022-07-29T12:13:51;5.45;;;2.20;;
15913;SDS011;8055;51.930;8.840;2022-07-29T12:16:17;5.85;;;2.30;;
15913;SDS011;8055;51.930;8.840;2022-07-29T12:18:57;8.02;;;2.83;;
15913;SDS011;8055;51.930;8.840;2022-07-29T12:21:26;8.10;;;2.88;;
15913;SDS011;8055;51.930;8.840;2022-07-29T12:23:52;4.85;;;2.40;;
15913;SDS011;8055;51.930;8.840;2022-07-29T12:26:19;5.25;;;2.50;;
15913;SDS011;8055;51.930;8.840;2022-07-29T12:28:45;8.05;;;2.40;;
15913;SDS011;8055;51.930;8.840;2022-07-29T12:31:14;4.47;;;2.53;;
15913;SDS011;8055;51.930;8.840;2022-07-29T12:33:40;7.78;;;2.83;;
15913;SDS011;8055;51.930;8.840;2022-07-29T12:36:06;6.50;;;2.70;;
15913;SDS011;8055;51.930;8.840;2022-07-29T12:38:33;6.97;;;2.70;;
15913;SDS011;8055;51.930;8.840;2022-07-29T12:40:59;5.28;;;2.55;;
15913;SDS011;8055;51.930;8.840;2022-07-29T12:43:25;6.20;;;2.40;;
15913;SDS011;8055;51.930;8.840;2022-07-29T12:45:55;4.05;;;2.30;;
15913;SDS011;8055;51.930;8.840;2022-07-29T12:48:34;7.25;;;2.65;;
15913;SDS011;8055;51.930;8.840;2022-07-29T12:51:02;5.95;;;2.17;;
15913;SDS011;8055;51.930;8.840;2022-07-29T12:53:29;6.50;;;2.50;;
15913;SDS011;8055;51.930;8.840;2022-07-29T12:55:56;5.57;;;2.58;;
15913;SDS011;8055;51.930;8.840;2022-07-29T13:01:01;6.85;;;2.60;;
15913;SDS011;8055;51.930;8.840;2022-07-29T13:03:41;5.15;;;2.40;;
15913;SDS011;8055;51.930;8.840;2022-07-29T13:06:30;7.78;;;2.70;;
15913;SDS011;8055;51.930;8.840;2022-07-29T13:09:11;8.88;;;2.35;;
15913;SDS011;8055;51.930;8.840;2022-07-29T13:11:45;10.50;;;2.55;;
15913;SDS011;8055;51.930;8.840;2022-07-29T13:14:13;7.43;;;2.40;;
15913;SDS011;8055;51.930;8.840;2022-07-29T13:17:07;8.10;;;2.22;;
15913;SDS011;8055;51.930;8.840;2022-07-29T13:19:33;4.75;;;2.05;;
15913;SDS011;8055;51.930;8.840;2022-07-29T13:21:59;4.13;;;2.40;;
15913;SDS011;8055;51.930;8.840;2022-07-29T13:24:24;6.90;;;2.50;;
15913;SDS011;8055;51.930;8.840;2022-07-29T13:26:50;7.28;;;2.60;;
15913;SDS011;8055;51.930;8.840;2022-07-29T13:29:16;12.98;;;2.40;;
15913;SDS011;8055;51.930;8.840;2022-07-29T13:31:42;6.45;;;2.65;;
15913;SDS011;8055;51.930;8.840;2022-07-29T13:34:07;4.85;;;2.42;;
15913;SDS011;8055;51.930;8.840;2022-07-29T13:36:33;3.95;;;2.10;;
15913;SDS011;8055;51.930;8.840;2022-07-29T13:38:58;8.40;;;2.25;;
15913;SDS011;8055;51.930;8.840;2022-07-29T13:41:24;6.75;;;2.45;;
15913;SDS011;8055;51.930;8.840;2022-07-29T13:43:49;4.80;;;2.22;;
15913;SDS011;8055;51.930;8.840;2022-07-29T13:46:14;6.40;;;2.20;;
15913;SDS011;8055;51.930;8.840;2022-07-29T13:48:40;7.32;;;2.60;;
15913;SDS011;8055;51.930;8.840;2022-07-29T13:51:06;12.02;;;3.05;;
15913;SDS011;8055;51.930;8.840;2022-07-29T13:53:31;8.30;;;2.00;;
15913;SDS011;8055;51.930;8.840;2022-07-29T13:55:57;12.68;;;2.42;;
15913;SDS011;8055;51.930;8.840;2022-07-29T13:58:23;7.82;;;2.50;;
15913;SDS011;8055;51.930;8.840;2022-07-29T14:00:48;6.32;;;2.53;;
15913;SDS011;8055;51.930;8.840;2022-07-29T14:03:14;6.00;;;2.50;;
15913;SDS011;8055;51.930;8.840;2022-07-29T14:05:39;6.28;;;2.20;;
15913;SDS011;8055;51.930;8.840;2022-07-29T14:08:05;4.10;;;2.28;;
15913;SDS011;8055;51.930;8.840;2022-07-29T14:10:30;4.28;;;1.73;;
15913;SDS011;8055;51.930;8.840;2022-07-29T14:12:55;6.90;;;2.13;;
15913;SDS011;8055;51.930;8.840;2022-07-29T14:15:21;5.00;;;2.38;;
15913;SDS011;8055;51.930;8.840;2022-07-29T14:17:46;4.50;;;1.95;;
15913;SDS011;8055;51.930;8.840;2022-07-29T14:20:12;5.68;;;2.22;;
15913;SDS011;8055;51.930;8.840;2022-07-29T14:22:37;4.18;;;2.15;;
15913;SDS011;8055;51.930;8.840;2022-07-29T14:25:03;6.00;;;2.20;;
15913;SDS011;8055;51.930;8.840;2022-07-29T14:27:28;7.47;;;2.10;;
15913;SDS011;8055;51.930;8.840;2022-07-29T14:29:54;10.15;;;2.50;;
15913;SDS011;8055;51.930;8.840;2022-07-29T14:32:19;6.43;;;2.38;;
15913;SDS011;8055;51.930;8.840;2022-07-29T14:34:45;7.20;;;2.03;;
15913;SDS011;8055;51.930;8.840;2022-07-29T14:37:10;7.82;;;2.35;;
15913;SDS011;8055;51.930;8.840;2022-07-29T14:39:35;9.45;;;2.55;;
15913;SDS011;8055;51.930;8.840;2022-07-29T14:42:01;9.27;;;2.45;;
15913;SDS011;8055;51.930;8.840;2022-07-29T14:44:26;7.53;;;2.25;;
15913;SDS011;8055;51.930;8.840;2022-07-29T14:46:56;8.23;;;2.47;;
15913;SDS011;8055;51.930;8.840;2022-07-29T14:49:24;7.63;;;2.15;;
15913;SDS011;8055;51.930;8.840;2022-07-29T14:51:50;6.93;;;2.38;;
15913;SDS011;8055;51.930;8.840;2022-07-29T14:54:16;9.00;;;2.97;;
15913;SDS011;8055;51.930;8.840;2022-07-29T14:56:41;8.43;;;2.53;;
15913;SDS011;8055;51.930;8.840;2022-07-29T14:59:07;8.35;;;2.63;;
15913;SDS011;8055;51.930;8.840;2022-07-29T15:01:32;9.70;;;2.65;;
15913;SDS011;8055;51.930;8.840;2022-07-29T15:03:57;12.35;;;2.22;;
15913;SDS011;8055;51.930;8.840;2022-07-29T15:06:23;9.80;;;2.30;;
15913;SDS011;8055;51.930;8.840;2022-07-29T15:08:48;9.13;;;2.60;;
15913;SDS011;8055;51.930;8.840;2022-07-29T15:11:14;9.77;;;2.83;;
15913;SDS011;8055;51.930;8.840;2022-07-29T15:13:39;5.88;;;2.45;;
15913;SDS011;8055;51.930;8.840;2022-07-29T15:16:05;14.23;;;2.78;;
15913;SDS011;8055;51.930;8.840;2022-07-29T15:18:30;5.38;;;2.55;;
15913;SDS011;8055;51.930;8.840;2022-07-29T15:20:56;11.45;;;2.97;;
15913;SDS011;8055;51.930;8.840;2022-07-29T15:23:21;6.75;;;2.50;;
15913;SDS011;8055;51.930;8.840;2022-07-29T15:25:47;9.93;;;2.50;;
15913;SDS011;8055;51.930;8.840;2022-07-29T15:28:12;8.20;;;2.47;;
15913;SDS011;8055;51.930;8.840;2022-07-29T15:30:37;12.00;;;3.67;;
15913;SDS011;8055;51.930;8.840;2022-07-29T15:33:07;7.80;;;2.80;;
15913;SDS011;8055;51.930;8.840;2022-07-29T15:35:36;6.93;;;2.40;;
15913;SDS011;8055;51.930;8.840;2022-07-29T15:38:02;9.50;;;2.75;;
15913;SDS011;8055;51.930;8.840;2022-07-29T15:40:28;13.48;;;3.00;;
15913;SDS011;8055;51.930;8.840;2022-07-29T15:42:54;8.13;;;2.78;;
15913;SDS011;8055;51.930;8.840;2022-07-29T15:45:19;12.00;;;3.08;;